sensor_id;sensor_type;location;lat;lon;timestamp;pressure;altitude;pressure_sealevel;temperature
70819;BMP280;58439;51.046;13.692;2023-04-06T00:00:08;100482.06;;;2.14
70819;BMP280;58439;51.046;13.692;2023-04-06T00:07:47;100487.81;;;2.06
70819;BMP280;58439;51.046;13.692;2023-04-06T00:15:56;100480.06;;;2.06
70819;BMP280;58439;51.046;13.692;2023-04-06T00:18:28;100485.91;;;2.08
70819;BMP280;58439;51.046;13.692;2023-04-06T00:20:55;100478.31;;;2.07
70819;BMP280;58439;51.046;13.692;2023-04-06T00:23:23;100483.56;;;2.05
70819;BMP280;58439;51.046;13.692;2023-04-06T00:25:50;100482.75;;;2.05
70819;BMP280;58439;51.046;13.692;2023-04-06T00:28:18;100484.53;;;2.04
70819;BMP280;58439;51.046;13.692;2023-04-06T00:30:54;100483.84;;;2.02
70819;BMP280;58439;51.046;13.692;2023-04-06T00:33:23;100474.44;;;2.01
70819;BMP280;58439;51.046;13.692;2023-04-06T00:35:51;100478.78;;;2.00
70819;BMP280;58439;51.046;13.692;2023-04-06T00:38:24;100478.19;;;1.97
70819;BMP280;58439;51.046;13.692;2023-04-06T00:40:53;100480.09;;;1.95
70819;BMP280;58439;51.046;13.692;2023-04-06T00:43:20;100470.13;;;1.90
70819;BMP280;58439;51.046;13.692;2023-04-06T00:45:57;100483.53;;;1.84
70819;BMP280;58439;51.046;13.692;2023-04-06T00:48:34;100477.31;;;1.76
70819;BMP280;58439;51.046;13.692;2023-04-06T00:51:05;100480.47;;;1.68
70819;BMP280;58439;51.046;13.692;2023-04-06T00:53:39;100476.59;;;1.62
70819;BMP280;58439;51.046;13.692;2023-04-06T00:56:08;100478.94;;;1.54
70819;BMP280;58439;51.046;13.692;2023-04-06T00:58:49;100484.22;;;1.53
70819;BMP280;58439;51.046;13.692;2023-04-06T01:01:20;100476.94;;;1.46
70819;BMP280;58439;51.046;13.692;2023-04-06T01:04:16;100485.75;;;1.44
70819;BMP280;58439;51.046;13.692;2023-04-06T01:06:54;100480.00;;;1.40
70819;BMP280;58439;51.046;13.692;2023-04-06T01:09:29;100474.72;;;1.42
70819;BMP280;58439;51.046;13.692;2023-04-06T01:12:25;100480.81;;;1.41
70819;BMP280;58439;51.046;13.692;2023-04-06T01:14:54;100479.28;;;1.38
70819;BMP280;58439;51.046;13.692;2023-04-06T01:17:21;100469.25;;;1.35
70819;BMP280;58439;51.046;13.692;2023-04-06T01:19:50;100477.09;;;1.34
70819;BMP280;58439;51.046;13.692;2023-04-06T01:22:26;100476.28;;;1.33
70819;BMP280;58439;51.046;13.692;2023-04-06T01:24:59;100474.06;;;1.29
70819;BMP280;58439;51.046;13.692;2023-04-06T01:27:33;100477.19;;;1.21
70819;BMP280;58439;51.046;13.692;2023-04-06T01:30:19;100468.41;;;1.12
70819;BMP280;58439;51.046;13.692;2023-04-06T01:32:56;100467.09;;;1.07
70819;BMP280;58439;51.046;13.692;2023-04-06T01:35:39;100470.75;;;1.04
70819;BMP280;58439;51.046;13.692;2023-04-06T01:38:16;100471.69;;;1.03
70819;BMP280;58439;51.046;13.692;2023-04-06T01:40:45;100466.63;;;1.02
70819;BMP280;58439;51.046;13.692;2023-04-06T01:43:12;100461.38;;;1.03
70819;BMP280;58439;51.046;13.692;2023-04-06T01:45:59;100465.69;;;1.03
70819;BMP280;58439;51.046;13.692;2023-04-06T01:48:31;100467.78;;;0.97
70819;BMP280;58439;51.046;13.692;2023-04-06T01:51:02;100461.94;;;0.95
70819;BMP280;58439;51.046;13.692;2023-04-06T01:53:33;100471.53;;;0.93
70819;BMP280;58439;51.046;13.692;2023-04-06T01:56:05;100463.19;;;0.90
70819;BMP280;58439;51.046;13.692;2023-04-06T01:58:37;100463.41;;;0.87
70819;BMP280;58439;51.046;13.692;2023-04-06T02:05:39;100466.56;;;0.79
70819;BMP280;58439;51.046;13.692;2023-04-06T02:08:18;100469.38;;;0.76
70819;BMP280;58439;51.046;13.692;2023-04-06T02:10:54;100464.31;;;0.74
70819;BMP280;58439;51.046;13.692;2023-04-06T02:13:34;100459.44;;;0.71
70819;BMP280;58439;51.046;13.692;2023-04-06T02:16:02;100464.78;;;0.68
70819;BMP280;58439;51.046;13.692;2023-04-06T02:18:31;100458.22;;;0.64
70819;BMP280;58439;51.046;13.692;2023-04-06T02:20:59;100458.44;;;0.61
70819;BMP280;58439;51.046;13.692;2023-04-06T02:23:26;100465.69;;;0.56
70819;BMP280;58439;51.046;13.692;2023-04-06T02:25:53;100460.75;;;0.53
70819;BMP280;58439;51.046;13.692;2023-04-06T02:28:27;100458.38;;;0.50
70819;BMP280;58439;51.046;13.692;2023-04-06T02:30:54;100455.94;;;0.48
70819;BMP280;58439;51.046;13.692;2023-04-06T02:33:26;100457.09;;;0.44
70819;BMP280;58439;51.046;13.692;2023-04-06T02:35:53;100451.00;;;0.45
70819;BMP280;58439;51.046;13.692;2023-04-06T02:38:22;100459.53;;;0.46
70819;BMP280;58439;51.046;13.692;2023-04-06T02:40:52;100450.66;;;0.50
70819;BMP280;58439;51.046;13.692;2023-04-06T02:43:24;100453.38;;;0.48
70819;BMP280;58439;51.046;13.692;2023-04-06T02:46:01;100457.78;;;0.46
70819;BMP280;58439;51.046;13.692;2023-04-06T02:48:33;100459.16;;;0.39
70819;BMP280;58439;51.046;13.692;2023-04-06T02:51:03;100452.59;;;0.35
70819;BMP280;58439;51.046;13.692;2023-04-06T02:53:31;100456.34;;;0.31
70819;BMP280;58439;51.046;13.692;2023-04-06T02:56:00;100453.78;;;0.31
70819;BMP280;58439;51.046;13.692;2023-04-06T02:58:40;100448.28;;;0.36
70819;BMP280;58439;51.046;13.692;2023-04-06T03:01:10;100447.72;;;0.32
70819;BMP280;58439;51.046;13.692;2023-04-06T03:03:39;100450.50;;;0.29
70819;BMP280;58439;51.046;13.692;2023-04-06T03:06:13;100448.88;;;0.28
70819;BMP280;58439;51.046;13.692;2023-04-06T03:08:40;100446.50;;;0.25
70819;BMP280;58439;51.046;13.692;2023-04-06T03:11:08;100448.34;;;0.23
70819;BMP280;58439;51.046;13.692;2023-04-06T03:13:49;100455.59;;;0.18
70819;BMP280;58439;51.046;13.692;2023-04-06T03:16:16;100450.56;;;0.16
70819;BMP280;58439;51.046;13.692;2023-04-06T03:18:46;100451.59;;;0.14
70819;BMP280;58439;51.046;13.692;2023-04-06T03:21:14;100448.63;;;0.07
70819;BMP280;58439;51.046;13.692;2023-04-06T03:23:48;100455.03;;;0.02
70819;BMP280;58439;51.046;13.692;2023-04-06T03:26:18;100461.94;;;0.01
70819;BMP280;58439;51.046;13.692;2023-04-06T03:28:45;100462.84;;;0.00
70819;BMP280;58439;51.046;13.692;2023-04-06T03:31:14;100462.00;;;-0.01
70819;BMP280;58439;51.046;13.692;2023-04-06T03:33:51;100462.47;;;-0.07
70819;BMP280;58439;51.046;13.692;2023-04-06T03:36:23;100456.91;;;-0.13
70819;BMP280;58439;51.046;13.692;2023-04-06T03:38:54;100476.88;;;-0.17
70819;BMP280;58439;51.046;13.692;2023-04-06T03:41:24;100464.13;;;-0.18
70819;BMP280;58439;51.046;13.692;2023-04-06T03:44:01;100466.69;;;-0.18
70819;BMP280;58439;51.046;13.692;2023-04-06T03:46:28;100478.00;;;-0.21
70819;BMP280;58439;51.046;13.692;2023-04-06T03:48:58;100478.94;;;-0.22
70819;BMP280;58439;51.046;13.692;2023-04-06T03:51:27;100472.25;;;-0.25
70819;BMP280;58439;51.046;13.692;2023-04-06T03:53:54;100489.63;;;-0.28
70819;BMP280;58439;51.046;13.692;2023-04-06T03:56:22;100486.25;;;-0.29
70819;BMP280;58439;51.046;13.692;2023-04-06T03:58:49;100483.06;;;-0.32
70819;BMP280;58439;51.046;13.692;2023-04-06T04:01:21;100490.22;;;-0.37
70819;BMP280;58439;51.046;13.692;2023-04-06T04:03:50;100491.38;;;-0.41
70819;BMP280;58439;51.046;13.692;2023-04-06T04:06:18;100486.34;;;-0.43
70819;BMP280;58439;51.046;13.692;2023-04-06T04:08:46;100490.75;;;-0.45
70819;BMP280;58439;51.046;13.692;2023-04-06T04:11:14;100489.13;;;-0.46
70819;BMP280;58439;51.046;13.692;2023-04-06T04:13:45;100488.19;;;-0.45
70819;BMP280;58439;51.046;13.692;2023-04-06T04:16:28;100494.13;;;-0.44
70819;BMP280;58439;51.046;13.692;2023-04-06T04:18:56;100482.09;;;-0.44
70819;BMP280;58439;51.046;13.692;2023-04-06T04:21:25;100483.25;;;-0.48
70819;BMP280;58439;51.046;13.692;2023-04-06T04:23:53;100484.19;;;-0.49
70819;BMP280;58439;51.046;13.692;2023-04-06T04:26:20;100484.09;;;-0.47
70819;BMP280;58439;51.046;13.692;2023-04-06T04:28:48;100483.97;;;-0.46
70819;BMP280;58439;51.046;13.692;2023-04-06T04:31:16;100485.72;;;-0.46
70819;BMP280;58439;51.046;13.692;2023-04-06T04:33:53;100490.88;;;-0.46
70819;BMP280;58439;51.046;13.692;2023-04-06T04:36:28;100490.13;;;-0.49
70819;BMP280;58439;51.046;13.692;2023-04-06T04:38:57;100490.94;;;-0.48
70819;BMP280;58439;51.046;13.692;2023-04-06T04:41:31;100490.13;;;-0.49
70819;BMP280;58439;51.046;13.692;2023-04-06T04:44:00;100485.00;;;-0.49
70819;BMP280;58439;51.046;13.692;2023-04-06T04:46:35;100490.75;;;-0.45
70819;BMP280;58439;51.046;13.692;2023-04-06T04:49:04;100492.19;;;-0.41
70819;BMP280;58439;51.046;13.692;2023-04-06T04:51:36;100497.94;;;-0.37
70819;BMP280;58439;51.046;13.692;2023-04-06T04:54:27;100488.28;;;-0.34
70819;BMP280;58439;51.046;13.692;2023-04-06T04:56:55;100501.78;;;-0.30
70819;BMP280;58439;51.046;13.692;2023-04-06T04:59:38;100506.91;;;-0.30
70819;BMP280;58439;51.046;13.692;2023-04-06T05:02:16;100501.94;;;-0.33
70819;BMP280;58439;51.046;13.692;2023-04-06T05:05:07;100495.50;;;-0.26
70819;BMP280;58439;51.046;13.692;2023-04-06T06:26:28;100522.19;;;2.39
70819;BMP280;58439;51.046;13.692;2023-04-06T06:28:56;100529.34;;;2.46
70819;BMP280;58439;51.046;13.692;2023-04-06T06:31:24;100521.78;;;2.55
70819;BMP280;58439;51.046;13.692;2023-04-06T06:33:51;100521.19;;;2.62
70819;BMP280;58439;51.046;13.692;2023-04-06T06:36:20;100524.00;;;2.80
70819;BMP280;58439;51.046;13.692;2023-04-06T06:38:47;100523.97;;;2.91
70819;BMP280;58439;51.046;13.692;2023-04-06T06:41:17;100518.84;;;3.01
70819;BMP280;58439;51.046;13.692;2023-04-06T06:43:45;100525.06;;;3.19
70819;BMP280;58439;51.046;13.692;2023-04-06T06:46:12;100517.09;;;3.32
70819;BMP280;58439;51.046;13.692;2023-04-06T06:48:40;100513.53;;;3.44
70819;BMP280;58439;51.046;13.692;2023-04-06T06:51:07;100518.00;;;3.52
70819;BMP280;58439;51.046;13.692;2023-04-06T06:53:36;100517.50;;;3.58
70819;BMP280;58439;51.046;13.692;2023-04-06T06:56:04;100520.66;;;3.71
70819;BMP280;58439;51.046;13.692;2023-04-06T06:58:31;100520.97;;;3.88
70819;BMP280;58439;51.046;13.692;2023-04-06T07:00:59;100508.88;;;4.08
70819;BMP280;58439;51.046;13.692;2023-04-06T07:03:29;100519.81;;;4.21
70819;BMP280;58439;51.046;13.692;2023-04-06T07:05:56;100518.59;;;4.35
70819;BMP280;58439;51.046;13.692;2023-04-06T07:08:25;100525.69;;;4.52
70819;BMP280;58439;51.046;13.692;2023-04-06T07:10:53;100520.88;;;4.67
70819;BMP280;58439;51.046;13.692;2023-04-06T07:13:23;100522.22;;;4.80
70819;BMP280;58439;51.046;13.692;2023-04-06T07:15:54;100515.94;;;4.93
70819;BMP280;58439;51.046;13.692;2023-04-06T07:18:22;100526.25;;;5.02
70819;BMP280;58439;51.046;13.692;2023-04-06T07:20:49;100519.56;;;5.10
70819;BMP280;58439;51.046;13.692;2023-04-06T07:23:17;100531.13;;;5.25
70819;BMP280;58439;51.046;13.692;2023-04-06T07:25:44;100525.91;;;5.34
70819;BMP280;58439;51.046;13.692;2023-04-06T07:28:12;100521.78;;;5.42
70819;BMP280;58439;51.046;13.692;2023-04-06T07:30:41;100523.94;;;5.46
70819;BMP280;58439;51.046;13.692;2023-04-06T07:33:10;100519.97;;;5.70
70819;BMP280;58439;51.046;13.692;2023-04-06T07:35:39;100521.81;;;5.87
70819;BMP280;58439;51.046;13.692;2023-04-06T07:38:08;100520.72;;;5.90
70819;BMP280;58439;51.046;13.692;2023-04-06T07:40:35;100518.19;;;5.98
70819;BMP280;58439;51.046;13.692;2023-04-06T07:43:03;100510.78;;;6.03
70819;BMP280;58439;51.046;13.692;2023-04-06T07:45:31;100519.28;;;6.13
70819;BMP280;58439;51.046;13.692;2023-04-06T07:48:00;100517.13;;;6.26
70819;BMP280;58439;51.046;13.692;2023-04-06T07:50:27;100526.84;;;6.42
70819;BMP280;58439;51.046;13.692;2023-04-06T07:52:55;100524.97;;;6.52
70819;BMP280;58439;51.046;13.692;2023-04-06T07:55:23;100524.97;;;6.52
70819;BMP280;58439;51.046;13.692;2023-04-06T07:57:51;100517.88;;;6.62
70819;BMP280;58439;51.046;13.692;2023-04-06T08:00:19;100514.69;;;6.69
70819;BMP280;58439;51.046;13.692;2023-04-06T08:02:46;100522.53;;;6.77
70819;BMP280;58439;51.046;13.692;2023-04-06T08:05:13;100514.53;;;6.96
70819;BMP280;58439;51.046;13.692;2023-04-06T08:07:42;100516.25;;;7.13
70819;BMP280;58439;51.046;13.692;2023-04-06T08:10:12;100515.81;;;7.26
70819;BMP280;58439;51.046;13.692;2023-04-06T08:12:39;100516.00;;;7.33
70819;BMP280;58439;51.046;13.692;2023-04-06T08:15:07;100516.16;;;7.39
70819;BMP280;58439;51.046;13.692;2023-04-06T08:17:34;100519.16;;;7.44
70819;BMP280;58439;51.046;13.692;2023-04-06T08:20:02;100516.69;;;7.51
70819;BMP280;58439;51.046;13.692;2023-04-06T08:22:30;100514.47;;;7.56
70819;BMP280;58439;51.046;13.692;2023-04-06T08:24:57;100514.78;;;7.61
70819;BMP280;58439;51.046;13.692;2023-04-06T08:27:25;100517.91;;;7.73
70819;BMP280;58439;51.046;13.692;2023-04-06T08:29:52;100511.75;;;7.98
70819;BMP280;58439;51.046;13.692;2023-04-06T08:32:19;100507.69;;;8.20
70819;BMP280;58439;51.046;13.692;2023-04-06T08:34:46;100509.63;;;8.26
70819;BMP280;58439;51.046;13.692;2023-04-06T08:37:14;100510.28;;;8.28
70819;BMP280;58439;51.046;13.692;2023-04-06T08:39:41;100507.19;;;8.33
70819;BMP280;58439;51.046;13.692;2023-04-06T08:42:33;100505.53;;;8.48
70819;BMP280;58439;51.046;13.692;2023-04-06T08:45:00;100502.91;;;8.57
70819;BMP280;58439;51.046;13.692;2023-04-06T08:47:28;100500.31;;;8.65
70819;BMP280;58439;51.046;13.692;2023-04-06T08:49:56;100500.97;;;8.75
70819;BMP280;58439;51.046;13.692;2023-04-06T08:52:27;100495.72;;;8.83
70819;BMP280;58439;51.046;13.692;2023-04-06T08:54:55;100501.22;;;8.88
70819;BMP280;58439;51.046;13.692;2023-04-06T08:57:22;100504.94;;;8.94
70819;BMP280;58439;51.046;13.692;2023-04-06T08:59:51;100501.50;;;9.01
70819;BMP280;58439;51.046;13.692;2023-04-06T09:02:19;100506.84;;;9.08
70819;BMP280;58439;51.046;13.692;2023-04-06T09:04:49;100504.72;;;9.12
70819;BMP280;58439;51.046;13.692;2023-04-06T09:07:19;100498.81;;;9.18
70819;BMP280;58439;51.046;13.692;2023-04-06T09:09:46;100502.16;;;9.34
70819;BMP280;58439;51.046;13.692;2023-04-06T09:12:27;100500.34;;;9.43
70819;BMP280;58439;51.046;13.692;2023-04-06T09:14:55;100496.19;;;9.49
70819;BMP280;58439;51.046;13.692;2023-04-06T09:17:25;100497.06;;;9.64
70819;BMP280;58439;51.046;13.692;2023-04-06T09:19:53;100492.25;;;9.76
70819;BMP280;58439;51.046;13.692;2023-04-06T09:22:21;100498.81;;;9.95
70819;BMP280;58439;51.046;13.692;2023-04-06T09:24:52;100496.16;;;10.03
70819;BMP280;58439;51.046;13.692;2023-04-06T09:27:34;100490.84;;;10.11
70819;BMP280;58439;51.046;13.692;2023-04-06T09:30:11;100491.94;;;10.16
70819;BMP280;58439;51.046;13.692;2023-04-06T09:32:49;100487.44;;;10.25
70819;BMP280;58439;51.046;13.692;2023-04-06T09:35:19;100485.22;;;10.37
70819;BMP280;58439;51.046;13.692;2023-04-06T09:37:50;100485.47;;;10.57
70819;BMP280;58439;51.046;13.692;2023-04-06T09:40:18;100484.19;;;10.67
70819;BMP280;58439;51.046;13.692;2023-04-06T09:42:47;100475.19;;;10.70
70819;BMP280;58439;51.046;13.692;2023-04-06T09:45:15;100476.09;;;10.77
70819;BMP280;58439;51.046;13.692;2023-04-06T09:47:45;100479.75;;;10.83
70819;BMP280;58439;51.046;13.692;2023-04-06T09:50:14;100480.09;;;11.09
70819;BMP280;58439;51.046;13.692;2023-04-06T09:52:51;100473.34;;;11.36
70819;BMP280;58439;51.046;13.692;2023-04-06T09:55:34;100466.84;;;11.32
70819;BMP280;58439;51.046;13.692;2023-04-06T09:58:09;100464.59;;;11.29
70819;BMP280;58439;51.046;13.692;2023-04-06T10:00:59;100470.19;;;11.69
70819;BMP280;58439;51.046;13.692;2023-04-06T10:04:17;100469.59;;;12.23
70819;BMP280;58439;51.046;13.692;2023-04-06T10:06:47;100469.31;;;12.11
70819;BMP280;58439;51.046;13.692;2023-04-06T10:09:28;100457.88;;;12.25
70819;BMP280;58439;51.046;13.692;2023-04-06T10:12:05;100455.44;;;12.17
70819;BMP280;58439;51.046;13.692;2023-04-06T10:14:34;100470.78;;;11.92
70819;BMP280;58439;51.046;13.692;2023-04-06T10:17:04;100467.09;;;11.80
70819;BMP280;58439;51.046;13.692;2023-04-06T10:19:57;100466.53;;;11.63
70819;BMP280;58439;51.046;13.692;2023-04-06T10:22:51;100468.34;;;11.41
70819;BMP280;58439;51.046;13.692;2023-04-06T10:25:34;100464.22;;;11.32
70819;BMP280;58439;51.046;13.692;2023-04-06T10:28:10;100465.72;;;11.41
70819;BMP280;58439;51.046;13.692;2023-04-06T10:30:45;100464.53;;;11.44
70819;BMP280;58439;51.046;13.692;2023-04-06T10:33:21;100469.84;;;11.50
70819;BMP280;58439;51.046;13.692;2023-04-06T10:35:48;100465.69;;;11.84
70819;BMP280;58439;51.046;13.692;2023-04-06T10:38:16;100457.00;;;12.11
70819;BMP280;58439;51.046;13.692;2023-04-06T10:40:48;100447.66;;;12.30
70819;BMP280;58439;51.046;13.692;2023-04-06T10:43:22;100454.97;;;12.48
70819;BMP280;58439;51.046;13.692;2023-04-06T10:45:57;100447.63;;;12.71
70819;BMP280;58439;51.046;13.692;2023-04-06T10:48:39;100454.16;;;12.89
70819;BMP280;58439;51.046;13.692;2023-04-06T10:51:16;100451.00;;;15.63
70819;BMP280;58439;51.046;13.692;2023-04-06T10:53:45;100454.31;;;18.26
70819;BMP280;58439;51.046;13.692;2023-04-06T10:56:16;100457.81;;;19.44
70819;BMP280;58439;51.046;13.692;2023-04-06T10:58:52;100442.81;;;20.84
70819;BMP280;58439;51.046;13.692;2023-04-06T11:01:22;100446.06;;;20.91
70819;BMP280;58439;51.046;13.692;2023-04-06T11:03:55;100444.09;;;20.81
70819;BMP280;58439;51.046;13.692;2023-04-06T11:06:27;100443.41;;;20.91
70819;BMP280;58439;51.046;13.692;2023-04-06T11:08:56;100444.41;;;21.27
70819;BMP280;58439;51.046;13.692;2023-04-06T11:11:26;100444.97;;;21.29
70819;BMP280;58439;51.046;13.692;2023-04-06T11:13:59;100441.03;;;21.37
70819;BMP280;58439;51.046;13.692;2023-04-06T11:16:31;100442.47;;;21.80
70819;BMP280;58439;51.046;13.692;2023-04-06T11:19:00;100436.13;;;21.81
70819;BMP280;58439;51.046;13.692;2023-04-06T11:21:49;100434.88;;;22.29
70819;BMP280;58439;51.046;13.692;2023-04-06T11:24:24;100437.28;;;22.36
70819;BMP280;58439;51.046;13.692;2023-04-06T11:26:54;100433.25;;;19.97
70819;BMP280;58439;51.046;13.692;2023-04-06T11:29:29;100421.34;;;17.41
70819;BMP280;58439;51.046;13.692;2023-04-06T11:32:01;100417.03;;;18.16
70819;BMP280;58439;51.046;13.692;2023-04-06T11:34:32;100416.19;;;19.27
70819;BMP280;58439;51.046;13.692;2023-04-06T11:37:03;100413.44;;;18.67
70819;BMP280;58439;51.046;13.692;2023-04-06T11:39:39;100417.84;;;17.76
70819;BMP280;58439;51.046;13.692;2023-04-06T11:42:07;100405.81;;;16.45
70819;BMP280;58439;51.046;13.692;2023-04-06T11:44:37;100409.09;;;15.55
70819;BMP280;58439;51.046;13.692;2023-04-06T11:47:10;100406.44;;;15.12
70819;BMP280;58439;51.046;13.692;2023-04-06T11:49:41;100414.44;;;17.17
70819;BMP280;58439;51.046;13.692;2023-04-06T11:52:24;100407.09;;;20.38
70819;BMP280;58439;51.046;13.692;2023-04-06T11:54:53;100403.94;;;22.13
70819;BMP280;58439;51.046;13.692;2023-04-06T11:57:21;100412.94;;;22.78
70819;BMP280;58439;51.046;13.692;2023-04-06T11:59:53;100408.16;;;23.94
70819;BMP280;58439;51.046;13.692;2023-04-06T12:02:20;100404.75;;;24.17
70819;BMP280;58439;51.046;13.692;2023-04-06T12:04:48;100401.09;;;24.03
70819;BMP280;58439;51.046;13.692;2023-04-06T12:07:15;100417.28;;;24.50
70819;BMP280;58439;51.046;13.692;2023-04-06T12:09:43;100403.53;;;25.29
70819;BMP280;58439;51.046;13.692;2023-04-06T12:12:10;100402.69;;;24.04
70819;BMP280;58439;51.046;13.692;2023-04-06T12:14:37;100401.06;;;21.27
70819;BMP280;58439;51.046;13.692;2023-04-06T12:17:04;100402.81;;;19.17
70819;BMP280;58439;51.046;13.692;2023-04-06T12:19:31;100394.53;;;18.01
70819;BMP280;58439;51.046;13.692;2023-04-06T12:21:59;100390.97;;;17.96
70819;BMP280;58439;51.046;13.692;2023-04-06T12:24:27;100393.44;;;18.76
70819;BMP280;58439;51.046;13.692;2023-04-06T12:26:55;100387.63;;;21.06
70819;BMP280;58439;51.046;13.692;2023-04-06T12:29:36;100395.38;;;22.67
70819;BMP280;58439;51.046;13.692;2023-04-06T12:32:03;100401.66;;;23.66
70819;BMP280;58439;51.046;13.692;2023-04-06T12:34:31;100394.75;;;24.28
70819;BMP280;58439;51.046;13.692;2023-04-06T12:36:59;100391.56;;;24.78
70819;BMP280;58439;51.046;13.692;2023-04-06T12:39:27;100383.56;;;24.49
70819;BMP280;58439;51.046;13.692;2023-04-06T12:41:54;100384.69;;;23.46
70819;BMP280;58439;51.046;13.692;2023-04-06T12:44:23;100375.00;;;20.86
70819;BMP280;58439;51.046;13.692;2023-04-06T12:46:52;100378.34;;;19.76
70819;BMP280;58439;51.046;13.692;2023-04-06T12:49:19;100376.09;;;21.43
70819;BMP280;58439;51.046;13.692;2023-04-06T12:51:47;100374.31;;;22.60
70819;BMP280;58439;51.046;13.692;2023-04-06T12:54:15;100367.63;;;22.63
70819;BMP280;58439;51.046;13.692;2023-04-06T12:56:42;100369.84;;;23.20
70819;BMP280;58439;51.046;13.692;2023-04-06T12:59:09;100370.28;;;23.81
70819;BMP280;58439;51.046;13.692;2023-04-06T13:01:37;100365.34;;;23.15
70819;BMP280;58439;51.046;13.692;2023-04-06T13:04:04;100359.31;;;23.44
70819;BMP280;58439;51.046;13.692;2023-04-06T13:06:31;100355.19;;;23.96
70819;BMP280;58439;51.046;13.692;2023-04-06T13:08:59;100360.13;;;24.89
70819;BMP280;58439;51.046;13.692;2023-04-06T13:11:26;100345.38;;;25.10
70819;BMP280;58439;51.046;13.692;2023-04-06T13:13:54;100351.00;;;24.90
70819;BMP280;58439;51.046;13.692;2023-04-06T13:16:22;100351.31;;;25.26
70819;BMP280;58439;51.046;13.692;2023-04-06T13:18:49;100357.94;;;25.15
70819;BMP280;58439;51.046;13.692;2023-04-06T13:21:17;100361.69;;;24.18
70819;BMP280;58439;51.046;13.692;2023-04-06T13:23:47;100351.25;;;23.54
70819;BMP280;58439;51.046;13.692;2023-04-06T13:26:15;100351.22;;;24.22
70819;BMP280;58439;51.046;13.692;2023-04-06T13:28:43;100343.38;;;24.31
70819;BMP280;58439;51.046;13.692;2023-04-06T13:31:11;100340.88;;;24.39
70819;BMP280;58439;51.046;13.692;2023-04-06T13:33:40;100341.09;;;24.67
70819;BMP280;58439;51.046;13.692;2023-04-06T13:36:08;100343.47;;;24.21
70819;BMP280;58439;51.046;13.692;2023-04-06T13:38:35;100338.22;;;24.10
70819;BMP280;58439;51.046;13.692;2023-04-06T13:41:05;100337.59;;;23.95
70819;BMP280;58439;51.046;13.692;2023-04-06T13:43:33;100333.13;;;23.85
70819;BMP280;58439;51.046;13.692;2023-04-06T13:46:00;100339.13;;;24.01
70819;BMP280;58439;51.046;13.692;2023-04-06T13:48:28;100335.50;;;24.44
70819;BMP280;58439;51.046;13.692;2023-04-06T13:50:55;100329.06;;;24.69
70819;BMP280;58439;51.046;13.692;2023-04-06T13:53:23;100325.63;;;24.64
70819;BMP280;58439;51.046;13.692;2023-04-06T13:55:54;100322.59;;;24.23
70819;BMP280;58439;51.046;13.692;2023-04-06T13:58:23;100325.16;;;24.09
70819;BMP280;58439;51.046;13.692;2023-04-06T14:00:50;100317.81;;;24.48
70819;BMP280;58439;51.046;13.692;2023-04-06T14:03:19;100317.88;;;24.86
70819;BMP280;58439;51.046;13.692;2023-04-06T14:05:46;100314.94;;;24.64
70819;BMP280;58439;51.046;13.692;2023-04-06T14:08:14;100309.78;;;24.67
70819;BMP280;58439;51.046;13.692;2023-04-06T14:10:41;100320.50;;;24.43
70819;BMP280;58439;51.046;13.692;2023-04-06T14:13:11;100306.47;;;24.33
70819;BMP280;58439;51.046;13.692;2023-04-06T14:15:39;100315.38;;;24.23
70819;BMP280;58439;51.046;13.692;2023-04-06T14:18:07;100316.19;;;23.95
70819;BMP280;58439;51.046;13.692;2023-04-06T14:20:35;100303.78;;;24.04
70819;BMP280;58439;51.046;13.692;2023-04-06T14:23:03;100311.72;;;23.85
70819;BMP280;58439;51.046;13.692;2023-04-06T14:25:30;100315.94;;;23.18
70819;BMP280;58439;51.046;13.692;2023-04-06T14:28:02;100312.78;;;23.55
70819;BMP280;58439;51.046;13.692;2023-04-06T14:30:30;100317.59;;;23.48
70819;BMP280;58439;51.046;13.692;2023-04-06T14:32:58;100311.28;;;23.39
70819;BMP280;58439;51.046;13.692;2023-04-06T14:35:26;100296.81;;;24.08
70819;BMP280;58439;51.046;13.692;2023-04-06T14:37:56;100311.94;;;23.89
70819;BMP280;58439;51.046;13.692;2023-04-06T14:40:27;100310.25;;;23.69
70819;BMP280;58439;51.046;13.692;2023-04-06T14:42:56;100306.09;;;23.52
70819;BMP280;58439;51.046;13.692;2023-04-06T14:45:23;100302.47;;;23.33
70819;BMP280;58439;51.046;13.692;2023-04-06T14:47:51;100307.47;;;23.50
70819;BMP280;58439;51.046;13.692;2023-04-06T14:50:18;100294.84;;;23.16
70819;BMP280;58439;51.046;13.692;2023-04-06T14:52:45;100300.31;;;22.86
70819;BMP280;58439;51.046;13.692;2023-04-06T14:55:13;100296.56;;;22.92
70819;BMP280;58439;51.046;13.692;2023-04-06T14:57:41;100297.84;;;23.05
70819;BMP280;58439;51.046;13.692;2023-04-06T15:00:10;100293.22;;;23.21
70819;BMP280;58439;51.046;13.692;2023-04-06T15:02:37;100297.53;;;23.11
70819;BMP280;58439;51.046;13.692;2023-04-06T15:05:05;100288.34;;;22.78
70819;BMP280;58439;51.046;13.692;2023-04-06T15:07:33;100299.91;;;22.64
70819;BMP280;58439;51.046;13.692;2023-04-06T15:10:00;100290.72;;;22.90
70819;BMP280;58439;51.046;13.692;2023-04-06T15:12:27;100295.69;;;22.47
70819;BMP280;58439;51.046;13.692;2023-04-06T15:14:56;100289.06;;;22.99
70819;BMP280;58439;51.046;13.692;2023-04-06T15:17:23;100301.50;;;23.19
70819;BMP280;58439;51.046;13.692;2023-04-06T15:19:52;100301.19;;;22.66
70819;BMP280;58439;51.046;13.692;2023-04-06T15:22:20;100294.00;;;22.62
70819;BMP280;58439;51.046;13.692;2023-04-06T15:24:47;100301.22;;;22.71
70819;BMP280;58439;51.046;13.692;2023-04-06T15:27:14;100293.94;;;22.82
70819;BMP280;58439;51.046;13.692;2023-04-06T15:29:41;100290.03;;;22.54
70819;BMP280;58439;51.046;13.692;2023-04-06T15:32:09;100290.13;;;22.24
70819;BMP280;58439;51.046;13.692;2023-04-06T15:34:36;100286.66;;;22.18
70819;BMP280;58439;51.046;13.692;2023-04-06T15:37:04;100282.38;;;22.32
70819;BMP280;58439;51.046;13.692;2023-04-06T15:39:32;100289.53;;;22.57
70819;BMP280;58439;51.046;13.692;2023-04-06T15:42:03;100287.63;;;22.68